sensor_id;sensor_type;location;lat;lon;timestamp;temperature;humidity
18073;DHT22;9161;47.348;9.648;2022-07-23T00:00:09;20.80;99.90
18073;DHT22;9161;47.348;9.648;2022-07-23T00:04:54;20.80;99.90
18073;DHT22;9161;47.348;9.648;2022-07-23T00:09:38;20.80;99.90
18073;DHT22;9161;47.348;9.648;2022-07-23T00:14:23;20.80;99.90
18073;DHT22;9161;47.348;9.648;2022-07-23T00:19:07;20.70;99.90
18073;DHT22;9161;47.348;9.648;2022-07-23T00:23:52;20.70;99.90
18073;DHT22;9161;47.348;9.648;2022-07-23T00:28:35;20.90;99.90
18073;DHT22;9161;47.348;9.648;2022-07-23T00:33:19;21.10;99.90
18073;DHT22;9161;47.348;9.648;2022-07-23T00:38:04;21.00;99.90
18073;DHT22;9161;47.348;9.648;2022-07-23T00:42:49;20.80;99.90
18073;DHT22;9161;47.348;9.648;2022-07-23T00:47:33;20.70;99.90
18073;DHT22;9161;47.348;9.648;2022-07-23T00:52:17;20.60;99.90
18073;DHT22;9161;47.348;9.648;2022-07-23T00:57:00;20.30;99.90
18073;DHT22;9161;47.348;9.648;2022-07-23T01:01:45;20.40;99.90
18073;DHT22;9161;47.348;9.648;2022-07-23T01:06:35;20.40;99.90
18073;DHT22;9161;47.348;9.648;2022-07-23T01:11:20;20.40;99.90
18073;DHT22;9161;47.348;9.648;2022-07-23T01:16:05;20.30;99.90
18073;DHT22;9161;47.348;9.648;2022-07-23T01:20:53;20.20;99.90
18073;DHT22;9161;47.348;9.648;2022-07-23T01:25:40;20.00;99.90
18073;DHT22;9161;47.348;9.648;2022-07-23T01:30:30;20.10;99.90
18073;DHT22;9161;47.348;9.648;2022-07-23T01:35:13;20.10;99.90
18073;DHT22;9161;47.348;9.648;2022-07-23T01:39:57;20.10;99.90
18073;DHT22;9161;47.348;9.648;2022-07-23T01:44:42;19.90;99.90
18073;DHT22;9161;47.348;9.648;2022-07-23T01:49:25;19.80;99.90
18073;DHT22;9161;47.348;9.648;2022-07-23T01:54:09;19.80;99.90
18073;DHT22;9161;47.348;9.648;2022-07-23T01:58:52;19.90;99.90
18073;DHT22;9161;47.348;9.648;2022-07-23T02:03:37;19.80;99.90
18073;DHT22;9161;47.348;9.648;2022-07-23T02:08:21;19.80;99.90
18073;DHT22;9161;47.348;9.648;2022-07-23T02:13:04;19.80;99.90
18073;DHT22;9161;47.348;9.648;2022-07-23T02:17:48;19.70;99.90
18073;DHT22;9161;47.348;9.648;2022-07-23T02:22:33;19.80;99.90
18073;DHT22;9161;47.348;9.648;2022-07-23T02:27:16;19.90;99.90
18073;DHT22;9161;47.348;9.648;2022-07-23T02:32:00;20.10;99.90
18073;DHT22;9161;47.348;9.648;2022-07-23T02:36:44;19.90;99.90
18073;DHT22;9161;47.348;9.648;2022-07-23T02:41:29;19.90;99.90
18073;DHT22;9161;47.348;9.648;2022-07-23T02:46:12;20.00;99.90
18073;DHT22;9161;47.348;9.648;2022-07-23T02:50:56;20.00;99.90
18073;DHT22;9161;47.348;9.648;2022-07-23T02:55:39;19.90;99.90
18073;DHT22;9161;47.348;9.648;2022-07-23T03:00:25;19.90;99.90
18073;DHT22;9161;47.348;9.648;2022-07-23T03:05:08;19.80;99.90
18073;DHT22;9161;47.348;9.648;2022-07-23T03:09:52;19.70;99.90
18073;DHT22;9161;47.348;9.648;2022-07-23T03:14:35;19.70;99.90
18073;DHT22;9161;47.348;9.648;2022-07-23T03:19:20;19.80;99.90
18073;DHT22;9161;47.348;9.648;2022-07-23T03:24:05;19.80;99.90
18073;DHT22;9161;47.348;9.648;2022-07-23T03:28:48;19.80;99.90
18073;DHT22;9161;47.348;9.648;2022-07-23T03:33:32;19.60;99.90
18073;DHT22;9161;47.348;9.648;2022-07-23T03:38:17;19.50;99.90
18073;DHT22;9161;47.348;9.648;2022-07-23T03:43:00;19.50;99.90
18073;DHT22;9161;47.348;9.648;2022-07-23T03:47:44;19.60;99.90
18073;DHT22;9161;47.348;9.648;2022-07-23T03:52:27;19.60;99.90
18073;DHT22;9161;47.348;9.648;2022-07-23T03:57:12;19.60;99.90
18073;DHT22;9161;47.348;9.648;2022-07-23T04:01:56;19.90;99.90
18073;DHT22;9161;47.348;9.648;2022-07-23T04:06:39;20.20;99.90
18073;DHT22;9161;47.348;9.648;2022-07-23T04:11:23;20.50;99.90
18073;DHT22;9161;47.348;9.648;2022-07-23T04:16:08;20.40;99.90
18073;DHT22;9161;47.348;9.648;2022-07-23T04:20:52;20.40;99.90
18073;DHT22;9161;47.348;9.648;2022-07-23T04:25:35;20.20;99.90
18073;DHT22;9161;47.348;9.648;2022-07-23T04:30:19;20.30;99.90
18073;DHT22;9161;47.348;9.648;2022-07-23T04:35:05;20.10;99.90
18073;DHT22;9161;47.348;9.648;2022-07-23T04:39:48;19.70;99.90
18073;DHT22;9161;47.348;9.648;2022-07-23T04:44:32;19.70;99.90
18073;DHT22;9161;47.348;9.648;2022-07-23T04:49:15;20.10;99.90
18073;DHT22;9161;47.348;9.648;2022-07-23T04:54:01;19.70;99.90
18073;DHT22;9161;47.348;9.648;2022-07-23T04:58:44;19.70;99.90
18073;DHT22;9161;47.348;9.648;2022-07-23T05:03:28;19.60;99.90
18073;DHT22;9161;47.348;9.648;2022-07-23T05:08:12;19.70;99.90
18073;DHT22;9161;47.348;9.648;2022-07-23T05:12:57;19.70;99.90
18073;DHT22;9161;47.348;9.648;2022-07-23T05:17:40;20.00;99.90
18073;DHT22;9161;47.348;9.648;2022-07-23T05:22:24;20.00;99.90
18073;DHT22;9161;47.348;9.648;2022-07-23T05:27:07;20.10;99.90
18073;DHT22;9161;47.348;9.648;2022-07-23T05:31:52;20.00;99.90
18073;DHT22;9161;47.348;9.648;2022-07-23T05:36:36;19.90;99.90
18073;DHT22;9161;47.348;9.648;2022-07-23T05:41:19;19.80;99.90
18073;DHT22;9161;47.348;9.648;2022-07-23T05:46:03;19.60;99.90
18073;DHT22;9161;47.348;9.648;2022-07-23T05:50:48;19.60;99.90
18073;DHT22;9161;47.348;9.648;2022-07-23T05:55:31;19.60;99.90
18073;DHT22;9161;47.348;9.648;2022-07-23T06:00:15;19.70;99.90
18073;DHT22;9161;47.348;9.648;2022-07-23T06:04:58;20.00;99.90
18073;DHT22;9161;47.348;9.648;2022-07-23T06:09:43;20.20;99.90
18073;DHT22;9161;47.348;9.648;2022-07-23T06:14:29;20.40;99.90
18073;DHT22;9161;47.348;9.648;2022-07-23T06:19:12;20.40;99.90
18073;DHT22;9161;47.348;9.648;2022-07-23T06:23:56;20.30;99.90
18073;DHT22;9161;47.348;9.648;2022-07-23T06:28:41;20.50;99.90
18073;DHT22;9161;47.348;9.648;2022-07-23T06:33:24;20.70;99.90
18073;DHT22;9161;47.348;9.648;2022-07-23T06:38:08;20.90;99.90
18073;DHT22;9161;47.348;9.648;2022-07-23T06:42:51;21.30;99.90
18073;DHT22;9161;47.348;9.648;2022-07-23T06:47:36;21.60;99.90
18073;DHT22;9161;47.348;9.648;2022-07-23T06:52:20;21.70;99.90
18073;DHT22;9161;47.348;9.648;2022-07-23T06:57:03;21.80;99.90
18073;DHT22;9161;47.348;9.648;2022-07-23T07:01:47;21.70;99.90
18073;DHT22;9161;47.348;9.648;2022-07-23T07:06:32;21.60;99.90
18073;DHT22;9161;47.348;9.648;2022-07-23T07:11:16;21.50;99.90
18073;DHT22;9161;47.348;9.648;2022-07-23T07:15:59;21.40;99.90
18073;DHT22;9161;47.348;9.648;2022-07-23T07:20:43;21.30;99.90
18073;DHT22;9161;47.348;9.648;2022-07-23T07:25:28;21.10;99.90
18073;DHT22;9161;47.348;9.648;2022-07-23T07:30:12;21.10;99.90
18073;DHT22;9161;47.348;9.648;2022-07-23T07:34:55;21.10;99.90
18073;DHT22;9161;47.348;9.648;2022-07-23T07:39:39;21.10;99.90
18073;DHT22;9161;47.348;9.648;2022-07-23T07:44:24;20.90;99.90
18073;DHT22;9161;47.348;9.648;2022-07-23T07:49:07;20.70;99.90
18073;DHT22;9161;47.348;9.648;2022-07-23T07:53:57;20.70;99.90
18073;DHT22;9161;47.348;9.648;2022-07-23T07:58:42;20.60;99.90
18073;DHT22;9161;47.348;9.648;2022-07-23T08:03:27;20.50;99.90
18073;DHT22;9161;47.348;9.648;2022-07-23T08:08:11;20.60;99.90
18073;DHT22;9161;47.348;9.648;2022-07-23T08:12:58;20.70;99.90
18073;DHT22;9161;47.348;9.648;2022-07-23T08:17:44;20.80;99.90
18073;DHT22;9161;47.348;9.648;2022-07-23T08:22:43;20.80;99.90
18073;DHT22;9161;47.348;9.648;2022-07-23T08:27:27;20.70;99.90
18073;DHT22;9161;47.348;9.648;2022-07-23T08:32:10;20.80;99.90
18073;DHT22;9161;47.348;9.648;2022-07-23T08:37:14;21.00;99.90
18073;DHT22;9161;47.348;9.648;2022-07-23T08:41:59;21.40;99.90
18073;DHT22;9161;47.348;9.648;2022-07-23T08:46:43;21.80;99.90
18073;DHT22;9161;47.348;9.648;2022-07-23T08:51:28;22.00;99.90
18073;DHT22;9161;47.348;9.648;2022-07-23T08:56:11;22.60;99.90
18073;DHT22;9161;47.348;9.648;2022-07-23T09:00:57;22.90;99.90
18073;DHT22;9161;47.348;9.648;2022-07-23T09:05:40;22.90;99.90
18073;DHT22;9161;47.348;9.648;2022-07-23T09:10:24;22.80;99.90
18073;DHT22;9161;47.348;9.648;2022-07-23T09:15:09;22.70;99.90
18073;DHT22;9161;47.348;9.648;2022-07-23T09:20:08;22.50;99.90
18073;DHT22;9161;47.348;9.648;2022-07-23T09:25:09;22.40;99.90
18073;DHT22;9161;47.348;9.648;2022-07-23T09:29:56;22.60;99.90
18073;DHT22;9161;47.348;9.648;2022-07-23T09:34:39;22.70;99.90
18073;DHT22;9161;47.348;9.648;2022-07-23T09:39:27;23.10;99.90
18073;DHT22;9161;47.348;9.648;2022-07-23T09:44:16;23.50;99.90
18073;DHT22;9161;47.348;9.648;2022-07-23T09:49:13;24.20;99.90
18073;DHT22;9161;47.348;9.648;2022-07-23T09:53:57;24.80;99.90
18073;DHT22;9161;47.348;9.648;2022-07-23T09:58:44;25.00;99.90
18073;DHT22;9161;47.348;9.648;2022-07-23T10:03:31;25.00;99.90
18073;DHT22;9161;47.348;9.648;2022-07-23T10:08:18;25.70;99.90
18073;DHT22;9161;47.348;9.648;2022-07-23T10:13:03;26.60;99.90
18073;DHT22;9161;47.348;9.648;2022-07-23T10:18:10;26.50;99.90
18073;DHT22;9161;47.348;9.648;2022-07-23T10:23:02;26.30;99.90
18073;DHT22;9161;47.348;9.648;2022-07-23T10:28:13;27.40;99.90
18073;DHT22;9161;47.348;9.648;2022-07-23T10:33:11;28.20;99.90
18073;DHT22;9161;47.348;9.648;2022-07-23T10:38:03;28.20;99.90
18073;DHT22;9161;47.348;9.648;2022-07-23T10:42:51;28.40;99.90
18073;DHT22;9161;47.348;9.648;2022-07-23T10:47:37;27.90;99.90
18073;DHT22;9161;47.348;9.648;2022-07-23T10:52:29;27.90;99.90
18073;DHT22;9161;47.348;9.648;2022-07-23T10:57:14;28.60;99.90
18073;DHT22;9161;47.348;9.648;2022-07-23T11:02:22;28.20;99.90
18073;DHT22;9161;47.348;9.648;2022-07-23T11:07:09;29.10;99.90
18073;DHT22;9161;47.348;9.648;2022-07-23T11:17:20;28.50;99.90
18073;DHT22;9161;47.348;9.648;2022-07-23T11:22:05;29.30;99.90
18073;DHT22;9161;47.348;9.648;2022-07-23T11:27:00;29.00;99.90
18073;DHT22;9161;47.348;9.648;2022-07-23T11:31:51;29.20;99.90
18073;DHT22;9161;47.348;9.648;2022-07-23T11:36:50;29.40;99.90
18073;DHT22;9161;47.348;9.648;2022-07-23T11:41:43;29.30;99.90
18073;DHT22;9161;47.348;9.648;2022-07-23T11:46:27;29.30;99.90
18073;DHT22;9161;47.348;9.648;2022-07-23T11:51:11;30.40;99.90
18073;DHT22;9161;47.348;9.648;2022-07-23T11:56:10;30.70;99.90
18073;DHT22;9161;47.348;9.648;2022-07-23T12:00:55;31.10;99.90
18073;DHT22;9161;47.348;9.648;2022-07-23T12:05:39;31.50;99.90
18073;DHT22;9161;47.348;9.648;2022-07-23T12:10:26;31.50;99.90
18073;DHT22;9161;47.348;9.648;2022-07-23T12:15:12;31.40;99.90
18073;DHT22;9161;47.348;9.648;2022-07-23T12:19:58;30.60;99.90
18073;DHT22;9161;47.348;9.648;2022-07-23T12:24:58;31.00;99.90
18073;DHT22;9161;47.348;9.648;2022-07-23T12:29:42;30.90;99.90
18073;DHT22;9161;47.348;9.648;2022-07-23T12:34:27;30.40;99.90
18073;DHT22;9161;47.348;9.648;2022-07-23T12:39:11;30.50;99.90
18073;DHT22;9161;47.348;9.648;2022-07-23T12:43:58;31.10;99.90
18073;DHT22;9161;47.348;9.648;2022-07-23T12:48:51;31.60;99.90
18073;DHT22;9161;47.348;9.648;2022-07-23T12:53:39;31.50;99.90
18073;DHT22;9161;47.348;9.648;2022-07-23T12:58:23;30.60;99.90
18073;DHT22;9161;47.348;9.648;2022-07-23T13:03:24;30.50;99.90
18073;DHT22;9161;47.348;9.648;2022-07-23T13:08:07;30.00;99.90
18073;DHT22;9161;47.348;9.648;2022-07-23T13:12:52;30.70;99.90
18073;DHT22;9161;47.348;9.648;2022-07-23T13:17:37;29.90;99.90
18073;DHT22;9161;47.348;9.648;2022-07-23T13:22:20;29.50;99.90
18073;DHT22;9161;47.348;9.648;2022-07-23T13:27:04;29.50;99.90
18073;DHT22;9161;47.348;9.648;2022-07-23T13:31:50;29.90;99.90
18073;DHT22;9161;47.348;9.648;2022-07-23T13:36:34;29.30;99.90
18073;DHT22;9161;47.348;9.648;2022-07-23T13:41:18;29.70;99.90
18073;DHT22;9161;47.348;9.648;2022-07-23T13:46:01;30.60;99.90
18073;DHT22;9161;47.348;9.648;2022-07-23T13:50:47;31.20;99.90
18073;DHT22;9161;47.348;9.648;2022-07-23T13:55:31;32.70;99.90
18073;DHT22;9161;47.348;9.648;2022-07-23T14:00:15;33.20;99.90
18073;DHT22;9161;47.348;9.648;2022-07-23T14:05:19;34.20;99.90
18073;DHT22;9161;47.348;9.648;2022-07-23T14:10:06;33.00;99.90
18073;DHT22;9161;47.348;9.648;2022-07-23T14:14:50;32.30;99.90
18073;DHT22;9161;47.348;9.648;2022-07-23T14:19:34;30.40;99.90
18073;DHT22;9161;47.348;9.648;2022-07-23T14:24:18;29.60;99.90
18073;DHT22;9161;47.348;9.648;2022-07-23T14:29:04;29.90;99.90
18073;DHT22;9161;47.348;9.648;2022-07-23T14:33:49;30.10;99.90
18073;DHT22;9161;47.348;9.648;2022-07-23T14:38:35;31.90;99.90
18073;DHT22;9161;47.348;9.648;2022-07-23T14:43:18;31.50;99.90
18073;DHT22;9161;47.348;9.648;2022-07-23T14:48:04;31.80;99.90
18073;DHT22;9161;47.348;9.648;2022-07-23T14:52:47;32.20;99.90
18073;DHT22;9161;47.348;9.648;2022-07-23T14:57:31;32.50;99.90
18073;DHT22;9161;47.348;9.648;2022-07-23T15:02:15;32.20;99.90
18073;DHT22;9161;47.348;9.648;2022-07-23T15:07:00;31.80;99.90
18073;DHT22;9161;47.348;9.648;2022-07-23T15:11:43;31.90;99.90
18073;DHT22;9161;47.348;9.648;2022-07-23T15:16:29;31.00;99.90
18073;DHT22;9161;47.348;9.648;2022-07-23T15:21:13;30.40;99.90
18073;DHT22;9161;47.348;9.648;2022-07-23T15:25:58;29.80;99.90
18073;DHT22;9161;47.348;9.648;2022-07-23T15:30:42;29.30;99.90
18073;DHT22;9161;47.348;9.648;2022-07-23T15:35:25;29.00;99.90
18073;DHT22;9161;47.348;9.648;2022-07-23T15:40:10;28.20;99.90
18073;DHT22;9161;47.348;9.648;2022-07-23T15:44:56;28.50;99.90
18073;DHT22;9161;47.348;9.648;2022-07-23T15:49:40;28.80;99.90
18073;DHT22;9161;47.348;9.648;2022-07-23T15:54:23;29.60;99.90
18073;DHT22;9161;47.348;9.648;2022-07-23T15:59:08;30.50;99.90
18073;DHT22;9161;47.348;9.648;2022-07-23T16:03:53;29.70;99.90
18073;DHT22;9161;47.348;9.648;2022-07-23T16:08:37;30.30;99.90
18073;DHT22;9161;47.348;9.648;2022-07-23T16:13:21;29.80;99.90
18073;DHT22;9161;47.348;9.648;2022-07-23T16:18:04;29.80;99.90
18073;DHT22;9161;47.348;9.648;2022-07-23T16:22:50;30.20;99.90
18073;DHT22;9161;47.348;9.648;2022-07-23T16:27:36;30.40;99.90
18073;DHT22;9161;47.348;9.648;2022-07-23T16:32:20;29.90;99.90
18073;DHT22;9161;47.348;9.648;2022-07-23T16:37:04;29.30;99.90
18073;DHT22;9161;47.348;9.648;2022-07-23T16:41:49;28.40;99.90
18073;DHT22;9161;47.348;9.648;2022-07-23T16:46:32;27.30;99.90
18073;DHT22;9161;47.348;9.648;2022-07-23T16:51:16;27.10;99.90
18073;DHT22;9161;47.348;9.648;2022-07-23T16:56:00;27.20;99.90
18073;DHT22;9161;47.348;9.648;2022-07-23T17:00:45;27.20;99.90
18073;DHT22;9161;47.348;9.648;2022-07-23T17:05:28;27.10;99.90
18073;DHT22;9161;47.348;9.648;2022-07-23T17:10:12;27.00;99.90
18073;DHT22;9161;47.348;9.648;2022-07-23T17:14:56;27.10;99.90
18073;DHT22;9161;47.348;9.648;2022-07-23T17:19:48;27.10;99.90
18073;DHT22;9161;47.348;9.648;2022-07-23T17:24:32;27.20;99.90
18073;DHT22;9161;47.348;9.648;2022-07-23T17:29:16;27.60;99.90
18073;DHT22;9161;47.348;9.648;2022-07-23T17:33:59;27.30;99.90
18073;DHT22;9161;47.348;9.648;2022-07-23T17:38:44;26.70;99.90
18073;DHT22;9161;47.348;9.648;2022-07-23T17:43:28;26.40;99.90
18073;DHT22;9161;47.348;9.648;2022-07-23T17:48:13;25.80;99.90
18073;DHT22;9161;47.348;9.648;2022-07-23T17:52:57;25.60;99.90
18073;DHT22;9161;47.348;9.648;2022-07-23T17:57:42;25.60;99.90
18073;DHT22;9161;47.348;9.648;2022-07-23T18:02:26;25.60;99.90
18073;DHT22;9161;47.348;9.648;2022-07-23T18:07:10;25.60;99.90
18073;DHT22;9161;47.348;9.648;2022-07-23T18:11:53;25.60;99.90
18073;DHT22;9161;47.348;9.648;2022-07-23T18:16:38;25.40;99.90
18073;DHT22;9161;47.348;9.648;2022-07-23T18:21:22;25.20;99.90
18073;DHT22;9161;47.348;9.648;2022-07-23T18:26:06;25.10;99.90
18073;DHT22;9161;47.348;9.648;2022-07-23T18:30:56;25.00;99.90
18073;DHT22;9161;47.348;9.648;2022-07-23T18:35:42;25.00;99.90
18073;DHT22;9161;47.348;9.648;2022-07-23T18:40:26;24.90;99.90
18073;DHT22;9161;47.348;9.648;2022-07-23T18:45:11;24.80;99.90
18073;DHT22;9161;47.348;9.648;2022-07-23T18:49:55;24.80;99.90
18073;DHT22;9161;47.348;9.648;2022-07-23T18:54:40;24.80;99.90
18073;DHT22;9161;47.348;9.648;2022-07-23T18:59:23;24.70;99.90
18073;DHT22;9161;47.348;9.648;2022-07-23T19:04:08;24.70;99.90
18073;DHT22;9161;47.348;9.648;2022-07-23T19:08:52;24.40;99.90
18073;DHT22;9161;47.348;9.648;2022-07-23T19:13:37;24.20;99.90
18073;DHT22;9161;47.348;9.648;2022-07-23T19:18:21;24.20;99.90
18073;DHT22;9161;47.348;9.648;2022-07-23T19:23:05;24.10;99.90
18073;DHT22;9161;47.348;9.648;2022-07-23T19:27:48;24.00;99.90
18073;DHT22;9161;47.348;9.648;2022-07-23T19:32:33;23.90;99.90
18073;DHT22;9161;47.348;9.648;2022-07-23T19:37:18;23.90;99.90
18073;DHT22;9161;47.348;9.648;2022-07-23T19:42:02;23.90;99.90
18073;DHT22;9161;47.348;9.648;2022-07-23T19:46:46;23.90;99.90
18073;DHT22;9161;47.348;9.648;2022-07-23T19:51:31;23.90;99.90
18073;DHT22;9161;47.348;9.648;2022-07-23T19:56:15;23.80;99.90
18073;DHT22;9161;47.348;9.648;2022-07-23T20:01:11;23.60;99.90
18073;DHT22;9161;47.348;9.648;2022-07-23T20:05:55;23.40;99.90
18073;DHT22;9161;47.348;9.648;2022-07-23T20:10:41;23.30;99.90
18073;DHT22;9161;47.348;9.648;2022-07-23T20:15:25;23.10;99.90
18073;DHT22;9161;47.348;9.648;2022-07-23T20:20:11;22.90;99.90
18073;DHT22;9161;47.348;9.648;2022-07-23T20:24:54;22.80;99.90
18073;DHT22;9161;47.348;9.648;2022-07-23T20:29:39;22.90;99.90
18073;DHT22;9161;47.348;9.648;2022-07-23T20:34:23;23.10;99.90
18073;DHT22;9161;47.348;9.648;2022-07-23T20:39:07;23.10;99.90
18073;DHT22;9161;47.348;9.648;2022-07-23T20:43:51;23.10;99.90
18073;DHT22;9161;47.348;9.648;2022-07-23T20:48:36;23.00;99.90
18073;DHT22;9161;47.348;9.648;2022-07-23T20:53:20;22.90;99.90
18073;DHT22;9161;47.348;9.648;2022-07-23T20:58:03;22.70;99.90
18073;DHT22;9161;47.348;9.648;2022-07-23T21:02:47;22.50;99.90
18073;DHT22;9161;47.348;9.648;2022-07-23T21:07:32;22.40;99.90
18073;DHT22;9161;47.348;9.648;2022-07-23T21:12:16;22.30;99.90
18073;DHT22;9161;47.348;9.648;2022-07-23T21:17:00;22.50;99.90
18073;DHT22;9161;47.348;9.648;2022-07-23T21:21:44;22.50;99.90
18073;DHT22;9161;47.348;9.648;2022-07-23T21:26:29;22.50;99.90
18073;DHT22;9161;47.348;9.648;2022-07-23T21:31:13;22.30;99.90
18073;DHT22;9161;47.348;9.648;2022-07-23T21:35:57;22.20;99.90
18073;DHT22;9161;47.348;9.648;2022-07-23T21:40:41;22.10;99.90
18073;DHT22;9161;47.348;9.648;2022-07-23T21:45:27;22.10;99.90
18073;DHT22;9161;47.348;9.648;2022-07-23T21:50:10;22.20;99.90
18073;DHT22;9161;47.348;9.648;2022-07-23T21:54:54;21.90;99.90
18073;DHT22;9161;47.348;9.648;2022-07-23T21:59:38;21.70;99.90
18073;DHT22;9161;47.348;9.648;2022-07-23T22:04:23;21.90;99.90
18073;DHT22;9161;47.348;9.648;2022-07-23T22:09:06;21.90;99.90
18073;DHT22;9161;47.348;9.648;2022-07-23T22:13:50;22.00;99.90
18073;DHT22;9161;47.348;9.648;2022-07-23T22:18:34;21.80;99.90
18073;DHT22;9161;47.348;9.648;2022-07-23T22:23:19;21.60;99.90
18073;DHT22;9161;47.348;9.648;2022-07-23T22:28:03;21.50;99.90
18073;DHT22;9161;47.348;9.648;2022-07-23T22:32:47;21.60;99.90
18073;DHT22;9161;47.348;9.648;2022-07-23T22:37:30;21.50;99.90
18073;DHT22;9161;47.348;9.648;2022-07-23T22:42:15;21.40;99.90
18073;DHT22;9161;47.348;9.648;2022-07-23T22:46:59;21.20;99.90
18073;DHT22;9161;47.348;9.648;2022-07-23T22:51:43;21.30;99.90
18073;DHT22;9161;47.348;9.648;2022-07-23T22:56:28;21.60;99.90
18073;DHT22;9161;47.348;9.648;2022-07-23T23:01:13;21.50;99.90
18073;DHT22;9161;47.348;9.648;2022-07-23T23:05:57;21.40;99.90
18073;DHT22;9161;47.348;9.648;2022-07-23T23:10:40;21.60;99.90
18073;DHT22;9161;47.348;9.648;2022-07-23T23:15:24;21.70;99.90
18073;DHT22;9161;47.348;9.648;2022-07-23T23:20:10;21.70;99.90
18073;DHT22;9161;47.348;9.648;2022-07-23T23:24:54;21.60;99.90
18073;DHT22;9161;47.348;9.648;2022-07-23T23:29:37;21.50;99.90
18073;DHT22;9161;47.348;9.648;2022-07-23T23:34:21;21.30;99.90
18073;DHT22;9161;47.348;9.648;2022-07-23T23:39:06;21.20;99.90
18073;DHT22;9161;47.348;9.648;2022-07-23T23:43:49;21.10;99.90
18073;DHT22;9161;47.348;9.648;2022-07-23T23:48:33;21.00;99.90
18073;DHT22;9161;47.348;9.648;2022-07-23T23:53:17;21.00;99.90
18073;DHT22;9161;47.348;9.648;2022-07-23T23:58:02;20.80;99.90
